Time;durP1;ratioP1;P1;durP2;ratioP2;P2;SDS_P1;SDS_P2;PMS_P1;PMS_P2;Temp;Humidity;BMP_temperature;BMP_pressure;BME280_temperature;BME280_humidity;BME280_pressure;Samples;Min_cycle;Max_cycle;Signal;HPM_P1;HPM_P2
2024/01/22 00:01:42;;;;;;;0.60;0.38;;;7.00;99.90;;;;;;5093058;27;20046;-65
2024/01/22 00:04:08;;;;;;;0.20;0.20;;;7.00;99.90;;;;;;5095576;27;20118;-64
2024/01/22 00:06:39;;;;;;;0.22;0.22;;;7.00;99.90;;;;;;5089028;28;20040;-66
2024/01/22 00:09:05;;;;;;;1.08;0.68;;;7.10;99.90;;;;;;5088492;27;20035;-66
2024/01/22 00:11:31;;;;;;;1.17;0.75;;;7.10;99.90;;;;;;5114715;27;20508;-65
2024/01/22 00:13:59;;;;;;;0.75;0.57;;;7.10;99.90;;;;;;5097964;27;20047;-65
2024/01/22 00:16:24;;;;;;;0.38;0.38;;;7.10;99.90;;;;;;5089239;27;20221;-65
2024/01/22 00:18:50;;;;;;;0.10;0.10;;;7.20;99.90;;;;;;5075168;27;20880;-64
2024/01/22 00:21:16;;;;;;;0.90;0.80;;;7.20;99.90;;;;;;5110240;27;21225;-66
2024/01/22 00:23:42;;;;;;;0.28;0.28;;;7.20;99.90;;;;;;5085058;28;20051;-67
2024/01/22 00:26:12;;;;;;;0.77;0.30;;;7.20;99.90;;;;;;5087962;27;20039;-65
2024/01/22 00:28:38;;;;;;;2.92;0.50;;;7.20;99.90;;;;;;5105595;27;20263;-64
2024/01/22 00:31:04;;;;;;;1.20;0.35;;;7.20;99.90;;;;;;5088872;27;20130;-66
2024/01/22 00:33:29;;;;;;;0.40;0.30;;;7.20;99.90;;;;;;5089253;27;20055;-66
2024/01/22 00:35:55;;;;;;;0.93;0.47;;;7.30;99.90;;;;;;5091840;28;20048;-67
2024/01/22 00:38:20;;;;;;;1.15;0.43;;;7.30;99.90;;;;;;5095047;27;20035;-64
2024/01/22 00:40:46;;;;;;;2.20;0.38;;;7.30;99.90;;;;;;5088234;27;20421;-65
2024/01/22 00:43:11;;;;;;;0.70;0.32;;;7.40;99.90;;;;;;5093142;27;20539;-66
2024/01/22 00:45:40;;;;;;;1.55;0.82;;;7.40;99.90;;;;;;5083595;28;20039;-67
2024/01/22 00:48:06;;;;;;;0.95;0.57;;;7.40;99.90;;;;;;5094394;28;20088;-67
2024/01/22 00:50:32;;;;;;;0.40;0.40;;;7.50;99.90;;;;;;5091460;27;20047;-67
2024/01/22 00:52:57;;;;;;;0.57;0.57;;;7.50;99.90;;;;;;5095474;28;20402;-68
2024/01/22 00:55:23;;;;;;;0.47;0.47;;;7.50;99.90;;;;;;5094777;28;20032;-67
2024/01/22 00:57:48;;;;;;;0.57;0.57;;;7.60;99.90;;;;;;5089550;28;20032;-67
2024/01/22 01:00:15;;;;;;;1.88;0.95;;;7.60;99.90;;;;;;5089556;28;20132;-66
2024/01/22 01:02:41;;;;;;;0.57;0.57;;;7.70;99.90;;;;;;5098884;27;20046;-66
2024/01/22 01:05:06;;;;;;;0.50;0.50;;;7.70;99.90;;;;;;5085996;27;20039;-65
2024/01/22 01:07:32;;;;;;;1.27;0.50;;;7.80;99.90;;;;;;5095800;28;20074;-66
2024/01/22 01:09:59;;;;;;;0.40;0.40;;;7.80;99.90;;;;;;5084810;28;20042;-67
2024/01/22 01:12:24;;;;;;;0.22;0.20;;;7.90;99.90;;;;;;5096086;27;20075;-66
2024/01/22 01:14:50;;;;;;;1.55;0.55;;;7.90;99.90;;;;;;5103667;27;20085;-67
2024/01/22 01:17:15;;;;;;;0.28;0.20;;;8.00;99.90;;;;;;5092657;28;20077;-66
2024/01/22 01:19:41;;;;;;;0.22;0.20;;;8.00;99.90;;;;;;5091672;28;20040;-67
2024/01/22 01:22:06;;;;;;;0.63;0.30;;;8.10;99.90;;;;;;5100398;28;20073;-66
2024/01/22 01:24:32;;;;;;;2.53;1.15;;;8.10;99.90;;;;;;5086106;28;20078;-66
2024/01/22 01:26:57;;;;;;;1.15;0.40;;;8.10;99.90;;;;;;5091474;28;20067;-67
2024/01/22 01:29:23;;;;;;;0.10;0.10;;;8.20;99.90;;;;;;5092867;28;20420;-66
2024/01/22 01:31:49;;;;;;;0.10;0.10;;;8.20;99.90;;;;;;5087072;28;20532;-67
2024/01/22 01:34:14;;;;;;;0.20;0.10;;;8.20;99.90;;;;;;5086902;28;20390;-65
2024/01/22 01:36:40;;;;;;;0.65;0.50;;;8.20;99.90;;;;;;5090438;28;20580;-66
2024/01/22 01:39:05;;;;;;;0.47;0.40;;;8.20;99.90;;;;;;5092665;28;20039;-65
2024/01/22 01:41:31;;;;;;;0.40;0.40;;;8.20;99.90;;;;;;5095215;28;20042;-66
2024/01/22 01:43:57;;;;;;;0.30;0.30;;;8.20;99.90;;;;;;5098493;28;20035;-65
2024/01/22 01:46:22;;;;;;;0.52;0.50;;;8.30;99.90;;;;;;5096917;28;20096;-64
2024/01/22 01:48:49;;;;;;;0.35;0.35;;;8.30;99.90;;;;;;5090582;28;20040;-66
2024/01/22 01:51:15;;;;;;;0.43;0.43;;;8.30;99.90;;;;;;5091175;28;20039;-65
2024/01/22 01:53:42;;;;;;;0.60;0.60;;;8.30;99.90;;;;;;5092995;28;20044;-65
2024/01/22 01:56:08;;;;;;;0.35;0.35;;;8.30;99.90;;;;;;5112544;28;20118;-65
2024/01/22 01:58:34;;;;;;;0.63;0.40;;;8.30;99.90;;;;;;5092188;28;20135;-65
2024/01/22 02:01:00;;;;;;;0.77;0.77;;;8.30;99.90;;;;;;5099910;28;20032;-65
2024/01/22 02:03:26;;;;;;;1.13;0.45;;;8.40;99.90;;;;;;5090891;28;20039;-65
2024/01/22 02:05:52;;;;;;;0.20;0.20;;;8.30;99.90;;;;;;5113278;27;20534;-63
2024/01/22 02:08:17;;;;;;;1.45;0.80;;;8.30;99.90;;;;;;5081957;27;20062;-64
2024/01/22 02:10:47;;;;;;;0.30;0.30;;;8.30;99.90;;;;;;5093670;28;20050;-64
2024/01/22 02:13:14;;;;;;;1.05;0.60;;;8.30;99.90;;;;;;5085219;27;20101;-65
2024/01/22 02:15:41;;;;;;;1.95;1.85;;;8.40;99.90;;;;;;5114605;27;20110;-64
2024/01/22 02:18:07;;;;;;;0.40;0.40;;;8.30;99.90;;;;;;5117415;27;20478;-64
2024/01/22 02:20:32;;;;;;;0.38;0.10;;;8.30;99.90;;;;;;5093155;27;20070;-65
2024/01/22 02:23:05;;;;;;;0.20;0.20;;;8.30;99.90;;;;;;5091847;28;20042;-64
2024/01/22 02:25:31;;;;;;;0.40;0.32;;;8.30;99.90;;;;;;5106075;27;20059;-64
2024/01/22 02:27:56;;;;;;;0.38;0.30;;;8.30;99.90;;;;;;5098072;27;20062;-65
2024/01/22 02:30:22;;;;;;;0.80;0.50;;;8.30;99.90;;;;;;5091523;27;20089;-64
2024/01/22 02:32:47;;;;;;;0.28;0.28;;;8.30;99.90;;;;;;5098859;28;20100;-64
2024/01/22 02:35:13;;;;;;;0.32;0.32;;;8.40;99.90;;;;;;5088504;28;20581;-67
2024/01/22 02:37:39;;;;;;;1.10;0.40;;;8.40;99.90;;;;;;5105251;28;20076;-65
2024/01/22 02:40:06;;;;;;;1.17;0.98;;;8.40;99.90;;;;;;5108825;27;20096;-64
2024/01/22 02:42:32;;;;;;;0.45;0.45;;;8.40;99.90;;;;;;5089780;28;20047;-63
2024/01/22 02:44:59;;;;;;;0.30;0.30;;;8.40;99.90;;;;;;5094740;27;20055;-65
2024/01/22 02:47:24;;;;;;;2.80;0.32;;;8.40;99.90;;;;;;5087047;27;20424;-64
2024/01/22 02:49:50;;;;;;;0.20;0.20;;;8.40;99.90;;;;;;5113139;27;20044;-64
2024/01/22 02:52:15;;;;;;;0.20;0.20;;;8.40;99.90;;;;;;5088460;28;20074;-65
2024/01/22 02:54:41;;;;;;;0.82;0.77;;;8.50;99.90;;;;;;5115278;27;20350;-64
2024/01/22 02:57:06;;;;;;;1.35;0.50;;;8.50;99.90;;;;;;5113241;27;20269;-63
2024/01/22 02:59:36;;;;;;;0.20;0.20;;;8.50;99.90;;;;;;5118960;27;20058;-64
2024/01/22 03:02:01;;;;;;;0.60;0.60;;;8.50;99.90;;;;;;5111544;27;20039;-62
2024/01/22 03:04:27;;;;;;;1.15;0.88;;;8.50;99.90;;;;;;5118349;27;20038;-64
2024/01/22 03:06:53;;;;;;;0.20;0.20;;;8.40;99.90;;;;;;5093168;28;20040;-64
2024/01/22 03:09:18;;;;;;;0.32;0.15;;;8.50;99.90;;;;;;5099116;28;20044;-64
2024/01/22 03:11:44;;;;;;;0.22;0.22;;;8.50;99.90;;;;;;5090024;28;20043;-64
2024/01/22 03:14:09;;;;;;;0.30;0.30;;;8.60;99.90;;;;;;5089479;27;20046;-65
2024/01/22 03:16:35;;;;;;;0.00;0.00;;;8.60;99.90;;;;;;5113656;27;20751;-64
2024/01/22 03:19:01;;;;;;;0.10;0.10;;;8.60;99.90;;;;;;5109353;27;20028;-64
2024/01/22 03:21:26;;;;;;;0.10;0.10;;;8.50;99.90;;;;;;5092084;28;20382;-64
2024/01/22 03:23:52;;;;;;;0.75;0.43;;;8.60;99.90;;;;;;5093823;27;20054;-64
2024/01/22 03:26:19;;;;;;;0.38;0.38;;;8.60;99.90;;;;;;5096410;28;20144;-64
2024/01/22 03:28:45;;;;;;;0.40;0.40;;;8.70;99.90;;;;;;5081531;28;20061;-64
2024/01/22 03:31:20;;;;;;;0.30;0.17;;;8.60;99.90;;;;;;5105678;27;20072;-64
2024/01/22 03:33:46;;;;;;;0.30;0.30;;;8.70;99.90;;;;;;5110471;27;20044;-64
2024/01/22 03:36:11;;;;;;;0.10;0.10;;;8.70;99.90;;;;;;5099483;28;20089;-63
2024/01/22 03:38:38;;;;;;;0.43;0.22;;;8.60;99.90;;;;;;5092571;28;20048;-64
2024/01/22 03:41:04;;;;;;;0.30;0.30;;;8.60;99.90;;;;;;5097218;27;20074;-63
2024/01/22 03:43:29;;;;;;;0.70;0.30;;;8.60;99.90;;;;;;5098540;28;20079;-65
2024/01/22 03:45:55;;;;;;;0.30;0.30;;;8.70;99.90;;;;;;5104477;27;20042;-63
2024/01/22 03:48:21;;;;;;;1.33;0.40;;;8.70;99.90;;;;;;5097023;27;20046;-64
2024/01/22 03:50:46;;;;;;;0.52;0.52;;;8.70;99.90;;;;;;5107767;27;20043;-64
2024/01/22 03:53:12;;;;;;;0.45;0.45;;;8.70;99.90;;;;;;5094302;28;20413;-63
2024/01/22 03:55:37;;;;;;;0.80;0.57;;;8.80;99.90;;;;;;5111073;27;20549;-65
2024/01/22 03:58:03;;;;;;;0.20;0.20;;;8.80;99.90;;;;;;5110518;27;20473;-63
2024/01/22 04:00:28;;;;;;;0.00;0.00;;;8.80;99.90;;;;;;5117422;27;20067;-63
2024/01/22 04:02:54;;;;;;;0.20;0.20;;;8.70;99.90;;;;;;5092138;27;20050;-64
2024/01/22 04:05:19;;;;;;;0.93;0.60;;;8.80;99.90;;;;;;5095391;28;20039;-63
2024/01/22 04:07:46;;;;;;;0.13;0.10;;;8.80;99.90;;;;;;5090037;27;20088;-64
2024/01/22 04:10:12;;;;;;;0.43;0.40;;;8.80;99.90;;;;;;5081885;28;20043;-64
2024/01/22 04:12:38;;;;;;;0.57;0.22;;;8.80;99.90;;;;;;5087689;28;20039;-65
2024/01/22 04:15:04;;;;;;;0.90;0.15;;;8.80;99.90;;;;;;5085161;28;20044;-64
2024/01/22 04:17:30;;;;;;;0.20;0.20;;;8.80;99.90;;;;;;5087102;28;20046;-64
2024/01/22 04:19:55;;;;;;;0.98;0.60;;;8.80;99.90;;;;;;5103687;27;20402;-63
2024/01/22 04:22:21;;;;;;;0.70;0.70;;;8.80;99.90;;;;;;5086946;28;20046;-64
2024/01/22 04:24:47;;;;;;;0.98;0.32;;;8.90;99.90;;;;;;5094566;28;20039;-64
2024/01/22 04:27:13;;;;;;;0.50;0.28;;;8.80;99.90;;;;;;5101044;27;20050;-64
2024/01/22 04:29:38;;;;;;;0.10;0.10;;;8.90;99.90;;;;;;5094562;28;20047;-64
2024/01/22 04:32:04;;;;;;;0.20;0.20;;;9.00;99.90;;;;;;5089260;27;20043;-65
2024/01/22 04:34:30;;;;;;;0.10;0.10;;;8.90;99.90;;;;;;5086797;28;20047;-64
2024/01/22 04:36:55;;;;;;;0.93;0.20;;;8.90;99.90;;;;;;5097040;27;20390;-64
2024/01/22 04:39:23;;;;;;;0.30;0.30;;;8.90;99.90;;;;;;5093658;27;20051;-64
2024/01/22 04:41:49;;;;;;;0.25;0.25;;;9.00;99.90;;;;;;5084175;27;20474;-64
2024/01/22 04:44:14;;;;;;;0.10;0.10;;;9.10;99.90;;;;;;5117414;27;20044;-64
2024/01/22 04:46:40;;;;;;;0.05;0.05;;;9.00;99.90;;;;;;5092698;28;20059;-64
2024/01/22 04:49:05;;;;;;;0.30;0.30;;;9.00;99.90;;;;;;5114532;27;20046;-64
2024/01/22 04:51:31;;;;;;;0.03;0.03;;;9.10;99.90;;;;;;5091855;28;20043;-64
2024/01/22 04:53:56;;;;;;;0.10;0.10;;;9.20;99.90;;;;;;5109663;27;20035;-64
2024/01/22 04:56:22;;;;;;;0.32;0.32;;;9.20;99.90;;;;;;5090042;27;20040;-65
2024/01/22 04:58:47;;;;;;;0.20;0.20;;;9.30;99.90;;;;;;5107139;27;20123;-65
2024/01/22 05:01:13;;;;;;;0.10;0.10;;;9.30;99.90;;;;;;5084873;27;21271;-65
2024/01/22 05:03:38;;;;;;;0.28;0.28;;;9.40;99.90;;;;;;5095221;28;20055;-64
2024/01/22 05:06:04;;;;;;;0.10;0.10;;;9.50;99.90;;;;;;5072474;28;20036;-67
2024/01/22 05:08:30;;;;;;;0.57;0.30;;;9.60;99.90;;;;;;5090939;28;20038;-65
2024/01/22 05:10:55;;;;;;;0.22;0.20;;;9.70;99.90;;;;;;5105609;27;20046;-65
2024/01/22 05:13:22;;;;;;;0.10;0.10;;;9.80;99.90;;;;;;5095077;28;20501;-65
2024/01/22 05:15:49;;;;;;;0.10;0.10;;;9.80;99.90;;;;;;5108672;27;20558;-64
2024/01/22 05:18:15;;;;;;;0.10;0.10;;;9.90;99.90;;;;;;5106003;28;20049;-65
2024/01/22 05:20:40;;;;;;;1.40;0.20;;;10.10;99.90;;;;;;5112635;27;20555;-65
2024/01/22 05:23:06;;;;;;;1.08;0.20;;;10.10;99.90;;;;;;5105439;27;20436;-65
2024/01/22 05:25:32;;;;;;;0.35;0.20;;;10.20;99.90;;;;;;5106547;28;20597;-64
2024/01/22 05:27:57;;;;;;;0.10;0.10;;;10.20;99.90;;;;;;5086942;28;20036;-65
2024/01/22 05:30:23;;;;;;;0.10;0.10;;;10.30;99.90;;;;;;5090141;28;20478;-64
2024/01/22 05:32:49;;;;;;;0.47;0.35;;;10.40;99.90;;;;;;5089184;28;20036;-65
2024/01/22 05:35:15;;;;;;;0.10;0.10;;;10.40;99.90;;;;;;5107436;28;20358;-65
2024/01/22 05:37:41;;;;;;;1.10;0.90;;;10.50;99.90;;;;;;5090593;28;20031;-65
2024/01/22 05:40:10;;;;;;;0.10;0.10;;;10.60;99.90;;;;;;5092355;28;20087;-66
2024/01/22 05:42:35;;;;;;;0.30;0.30;;;10.60;99.90;;;;;;5091844;27;20055;-65
2024/01/22 05:45:02;;;;;;;0.20;0.20;;;10.70;99.90;;;;;;5092604;28;20047;-66
2024/01/22 05:47:28;;;;;;;0.20;0.20;;;10.70;99.90;;;;;;5092894;27;20129;-66
2024/01/22 05:49:53;;;;;;;0.10;0.10;;;10.80;99.90;;;;;;5114837;27;20546;-67
2024/01/22 05:52:20;;;;;;;0.20;0.20;;;10.80;99.90;;;;;;5095612;27;20066;-64
2024/01/22 05:54:45;;;;;;;0.10;0.10;;;10.90;99.90;;;;;;5098988;28;20087;-66
2024/01/22 05:57:11;;;;;;;0.10;0.10;;;10.90;99.90;;;;;;5093545;27;20071;-66
2024/01/22 05:59:38;;;;;;;0.22;0.22;;;10.90;99.90;;;;;;5093311;27;20050;-66
2024/01/22 06:02:04;;;;;;;0.25;0.25;;;10.90;99.90;;;;;;5091438;27;20095;-65
2024/01/22 06:04:29;;;;;;;0.13;0.13;;;10.80;99.90;;;;;;5099205;27;20581;-64
2024/01/22 06:06:55;;;;;;;0.20;0.20;;;10.90;99.90;;;;;;5092148;28;20462;-66
2024/01/22 06:09:21;;;;;;;0.10;0.10;;;10.80;99.90;;;;;;5098297;28;20489;-64
2024/01/22 06:11:46;;;;;;;0.10;0.10;;;10.80;99.90;;;;;;5096845;27;20039;-64
2024/01/22 06:14:12;;;;;;;0.40;0.17;;;10.80;99.90;;;;;;5092002;28;20043;-65
2024/01/22 06:16:37;;;;;;;0.10;0.10;;;10.80;99.90;;;;;;5088427;27;20052;-65
2024/01/22 06:19:03;;;;;;;0.45;0.13;;;10.80;99.90;;;;;;5097509;27;20035;-65
2024/01/22 06:21:28;;;;;;;0.10;0.10;;;10.80;99.90;;;;;;5098409;27;20046;-65
2024/01/22 06:23:54;;;;;;;0.45;0.15;;;10.80;99.90;;;;;;5092455;27;20039;-65
2024/01/22 06:26:21;;;;;;;0.55;0.35;;;10.80;99.90;;;;;;5087041;27;20109;-65
2024/01/22 06:28:47;;;;;;;0.00;0.00;;;10.80;99.90;;;;;;5092666;27;20043;-65
2024/01/22 06:31:13;;;;;;;0.20;0.20;;;10.90;99.90;;;;;;5102170;27;20394;-66
2024/01/22 06:33:39;;;;;;;0.20;0.20;;;10.80;99.90;;;;;;5088123;27;20044;-64
2024/01/22 06:36:06;;;;;;;0.10;0.10;;;10.80;99.90;;;;;;5115145;27;20040;-64
2024/01/22 06:38:32;;;;;;;0.45;0.22;;;10.70;99.90;;;;;;5095179;27;20104;-64
2024/01/22 06:40:57;;;;;;;0.25;0.25;;;10.70;99.90;;;;;;5096541;27;20310;-64
2024/01/22 06:43:23;;;;;;;0.73;0.65;;;10.60;99.90;;;;;;5092799;28;20047;-65
2024/01/22 06:45:49;;;;;;;0.43;0.43;;;10.70;99.90;;;;;;5094205;27;20062;-65
2024/01/22 06:48:15;;;;;;;0.52;0.35;;;10.60;99.90;;;;;;5084339;27;20043;-65
2024/01/22 06:50:40;;;;;;;0.08;0.08;;;10.60;99.90;;;;;;5098185;27;20039;-66
2024/01/22 06:53:06;;;;;;;0.10;0.10;;;10.60;99.90;;;;;;5094672;28;20122;-64
2024/01/22 06:55:31;;;;;;;0.00;0.00;;;10.60;99.90;;;;;;5094841;27;20419;-65
2024/01/22 06:57:57;;;;;;;0.22;0.22;;;10.60;99.90;;;;;;5108363;27;20048;-65
2024/01/22 07:00:22;;;;;;;0.30;0.20;;;10.60;99.90;;;;;;5115457;27;20083;-65
2024/01/22 07:02:51;;;;;;;0.17;0.17;;;10.70;99.90;;;;;;5107575;27;20119;-64
2024/01/22 07:05:16;;;;;;;0.10;0.10;;;10.70;99.90;;;;;;5105995;27;20050;-65
2024/01/22 07:07:42;;;;;;;0.10;0.10;;;10.80;99.90;;;;;;5086092;27;20390;-64
2024/01/22 07:10:09;;;;;;;0.47;0.47;;;10.70;99.90;;;;;;5095117;27;20100;-66
2024/01/22 07:12:35;;;;;;;0.30;0.22;;;10.80;99.90;;;;;;5102870;27;20090;-65
2024/01/22 07:15:01;;;;;;;0.85;0.43;;;10.80;99.90;;;;;;5114765;27;20138;-64
2024/01/22 07:17:28;;;;;;;0.65;0.47;;;10.70;99.90;;;;;;5104972;27;20115;-65
2024/01/22 07:19:54;;;;;;;0.35;0.20;;;10.70;99.90;;;;;;5100057;27;20043;-66
2024/01/22 07:22:20;;;;;;;0.10;0.10;;;10.70;99.90;;;;;;5091254;27;20692;-64
2024/01/22 07:24:45;;;;;;;6.90;0.52;;;10.70;99.90;;;;;;5110483;27;20051;-65
2024/01/22 07:27:11;;;;;;;8.57;0.63;;;10.70;99.90;;;;;;5099364;27;20047;-63
2024/01/22 07:29:36;;;;;;;0.10;0.10;;;10.60;99.90;;;;;;5092035;27;20043;-65
2024/01/22 07:32:02;;;;;;;1.55;0.43;;;10.60;99.90;;;;;;5096877;27;20545;-64
2024/01/22 07:34:28;;;;;;;1.48;0.55;;;10.70;99.90;;;;;;5094252;27;20043;-65
2024/01/22 07:36:53;;;;;;;0.30;0.30;;;10.70;99.90;;;;;;5093196;28;20050;-66
2024/01/22 07:39:19;;;;;;;4.30;2.05;;;10.70;99.90;;;;;;5094428;28;20448;-65
2024/01/22 07:41:45;;;;;;;0.45;0.45;;;10.70;99.90;;;;;;5107762;27;20464;-63
2024/01/22 07:44:10;;;;;;;4.22;1.95;;;10.70;99.90;;;;;;5108498;27;20046;-64
2024/01/22 07:46:36;;;;;;;2.72;0.85;;;10.60;99.90;;;;;;5108901;27;20503;-65
2024/01/22 07:49:02;;;;;;;0.10;0.10;;;10.70;99.90;;;;;;5107663;27;20043;-65
2024/01/22 07:51:29;;;;;;;0.20;0.20;;;10.70;99.90;;;;;;5095010;27;20044;-65
2024/01/22 07:53:54;;;;;;;0.28;0.28;;;10.70;99.90;;;;;;5095682;28;20046;-65
2024/01/22 07:56:20;;;;;;;1.02;0.40;;;10.60;99.90;;;;;;5102536;27;20110;-65
2024/01/22 07:58:46;;;;;;;2.28;0.95;;;10.60;99.90;;;;;;5109543;27;20028;-64
2024/01/22 08:01:12;;;;;;;0.45;0.45;;;10.60;99.90;;;;;;5096982;28;20047;-65
2024/01/22 08:03:38;;;;;;;0.45;0.28;;;10.60;99.90;;;;;;5091255;27;20040;-64
2024/01/22 08:06:04;;;;;;;0.32;0.32;;;10.60;99.90;;;;;;5107712;27;20035;-64
2024/01/22 08:08:30;;;;;;;0.30;0.30;;;10.50;99.90;;;;;;5092174;27;20420;-65
2024/01/22 08:10:56;;;;;;;0.10;0.10;;;10.50;99.90;;;;;;5115626;27;20055;-63
2024/01/22 08:13:21;;;;;;;0.52;0.52;;;10.50;99.90;;;;;;5096064;28;20044;-64
2024/01/22 08:15:48;;;;;;;0.30;0.30;;;10.50;99.90;;;;;;5093375;28;20046;-65
2024/01/22 08:18:14;;;;;;;0.17;0.17;;;10.50;99.90;;;;;;5106978;27;20440;-63
2024/01/22 08:20:40;;;;;;;0.68;0.32;;;10.60;99.90;;;;;;5092138;27;20043;-65
2024/01/22 08:23:07;;;;;;;2.58;1.42;;;10.50;99.90;;;;;;5093953;28;20040;-64
2024/01/22 08:25:32;;;;;;;0.20;0.20;;;10.60;99.90;;;;;;5113098;27;20035;-64
2024/01/22 08:27:58;;;;;;;0.10;0.10;;;10.50;99.90;;;;;;5111613;27;20028;-64
2024/01/22 08:30:25;;;;;;;0.10;0.10;;;10.50;99.90;;;;;;5092443;27;20043;-64
2024/01/22 08:32:51;;;;;;;0.88;0.85;;;10.50;99.90;;;;;;5092413;28;20050;-66
2024/01/22 08:35:19;;;;;;;0.25;0.25;;;10.40;99.90;;;;;;5096295;27;20047;-64
2024/01/22 08:37:47;;;;;;;2.20;2.05;;;10.50;99.90;;;;;;5105688;27;20031;-64
2024/01/22 08:40:17;;;;;;;0.28;0.28;;;10.40;99.90;;;;;;5110289;27;20054;-65
2024/01/22 08:42:45;;;;;;;0.28;0.28;;;10.40;99.90;;;;;;5088805;28;20052;-66
2024/01/22 08:45:11;;;;;;;1.35;0.43;;;10.40;99.90;;;;;;5092139;28;20040;-65
2024/01/22 08:47:37;;;;;;;0.50;0.50;;;10.30;99.90;;;;;;5088922;28;20050;-64
2024/01/22 08:50:04;;;;;;;0.77;0.57;;;10.40;99.90;;;;;;5110359;27;20034;-64
2024/01/22 08:52:30;;;;;;;0.25;0.22;;;10.40;99.90;;;;;;5092967;27;20042;-66
2024/01/22 08:54:55;;;;;;;0.57;0.57;;;10.40;99.90;;;;;;5098308;27;20126;-63
2024/01/22 08:57:21;;;;;;;0.22;0.22;;;10.40;99.90;;;;;;5091065;28;20545;-64
2024/01/22 08:59:46;;;;;;;0.43;0.32;;;10.30;99.90;;;;;;5089919;28;20047;-64
2024/01/22 09:02:12;;;;;;;17.45;0.85;;;10.30;99.90;;;;;;5087227;28;20051;-64
2024/01/22 09:04:37;;;;;;;0.52;0.35;;;10.30;99.90;;;;;;5081443;27;20078;-64
2024/01/22 09:07:03;;;;;;;2.90;0.65;;;10.30;99.90;;;;;;5082635;28;20096;-63
2024/01/22 09:09:29;;;;;;;0.47;0.47;;;10.30;99.90;;;;;;5083609;28;20504;-63
2024/01/22 09:11:54;;;;;;;4.03;1.25;;;10.20;99.90;;;;;;5103621;28;20047;-65
2024/01/22 09:14:20;;;;;;;0.63;0.63;;;10.20;99.90;;;;;;5079906;28;20040;-64
2024/01/22 09:16:45;;;;;;;1.58;0.60;;;10.20;99.90;;;;;;5108115;28;20378;-65
2024/01/22 09:19:11;;;;;;;0.75;0.47;;;10.30;99.90;;;;;;5087913;28;20062;-66
2024/01/22 09:21:36;;;;;;;3.65;1.52;;;10.20;99.90;;;;;;5092144;28;20354;-67
2024/01/22 09:24:02;;;;;;;0.63;0.60;;;10.30;99.90;;;;;;5087853;28;20367;-64
2024/01/22 09:26:27;;;;;;;1.63;0.50;;;10.30;99.90;;;;;;5089406;28;20475;-66
2024/01/22 09:28:53;;;;;;;12.73;1.23;;;10.30;99.90;;;;;;5088241;28;20035;-64
2024/01/22 09:31:19;;;;;;;0.57;0.55;;;10.30;99.90;;;;;;5095013;28;20035;-65
2024/01/22 09:33:45;;;;;;;0.20;0.20;;;10.30;99.90;;;;;;5095945;28;20036;-65
2024/01/22 09:36:11;;;;;;;0.13;0.13;;;10.30;99.90;;;;;;5096930;28;20494;-65
2024/01/22 09:38:40;;;;;;;0.75;0.73;;;10.30;99.90;;;;;;5092651;28;20127;-64
2024/01/22 09:41:06;;;;;;;1.35;1.00;;;10.30;99.90;;;;;;5086150;28;20344;-65
2024/01/22 09:43:32;;;;;;;0.60;0.60;;;10.30;99.90;;;;;;5078457;28;20047;-65
2024/01/22 09:45:58;;;;;;;0.80;0.80;;;10.30;99.90;;;;;;5096536;28;20056;-65
2024/01/22 09:48:24;;;;;;;6.70;0.50;;;10.20;99.90;;;;;;5090047;28;20047;-65
2024/01/22 09:50:53;;;;;;;0.40;0.40;;;10.20;99.90;;;;;;5106625;28;20036;-66
2024/01/22 09:53:20;;;;;;;0.10;0.10;;;10.20;99.90;;;;;;5083631;28;20043;-65
2024/01/22 09:55:47;;;;;;;0.20;0.20;;;10.20;99.90;;;;;;5083175;28;20176;-65
2024/01/22 09:58:19;;;;;;;0.17;0.17;;;10.20;99.90;;;;;;5103819;28;20401;-65
2024/01/22 10:00:46;;;;;;;0.52;0.52;;;10.20;99.90;;;;;;5090365;28;20031;-66
2024/01/22 10:03:13;;;;;;;1.80;0.73;;;10.10;99.90;;;;;;5091255;28;20952;-66
2024/01/22 10:05:38;;;;;;;0.40;0.38;;;10.20;99.90;;;;;;5078243;28;20044;-65
2024/01/22 10:08:04;;;;;;;0.57;0.57;;;10.20;99.90;;;;;;5094677;28;20540;-64
2024/01/22 10:10:30;;;;;;;1.38;1.17;;;10.20;99.90;;;;;;5086395;28;20039;-64
2024/01/22 10:12:58;;;;;;;0.38;0.38;;;10.20;99.90;;;;;;5112099;28;20050;-66
2024/01/22 10:15:25;;;;;;;0.10;0.10;;;10.20;99.90;;;;;;5064348;28;20036;-67
2024/01/22 10:17:51;;;;;;;0.45;0.20;;;10.30;99.90;;;;;;5095018;28;20445;-66
2024/01/22 10:20:21;;;;;;;2.90;2.60;;;10.30;99.90;;;;;;5088083;28;20035;-65
2024/01/22 10:22:47;;;;;;;6.22;1.55;;;10.30;99.90;;;;;;5087729;28;20247;-66
2024/01/22 10:25:12;;;;;;;28.95;1.38;;;10.20;99.90;;;;;;5078004;28;20048;-67
2024/01/22 10:27:38;;;;;;;5.95;2.28;;;10.20;99.90;;;;;;5091870;28;20052;-67
2024/01/22 10:30:14;;;;;;;3.42;0.80;;;10.10;99.90;;;;;;5091914;28;20039;-65
2024/01/22 10:32:39;;;;;;;7.88;1.38;;;10.00;99.90;;;;;;5103323;27;20587;-67
2024/01/22 10:35:25;;;;;;;0.52;0.52;;;10.00;99.90;;;;;;5102863;27;20044;-68
2024/01/22 10:38:09;;;;;;;0.52;0.43;;;10.00;99.90;;;;;;5093645;27;20089;-65
2024/01/22 10:40:35;;;;;;;0.20;0.17;;;9.90;99.90;;;;;;5079126;28;20297;-66
2024/01/22 10:43:21;;;;;;;1.75;0.68;;;9.80;99.90;;;;;;5078880;27;20039;-65
2024/01/22 10:45:47;;;;;;;0.88;0.85;;;9.80;99.90;;;;;;5089382;28;20074;-66
2024/01/22 10:48:16;;;;;;;1.60;0.52;;;9.80;99.90;;;;;;5093502;28;20043;-66
2024/01/22 10:50:43;;;;;;;18.10;0.47;;;9.80;99.90;;;;;;5089204;28;20481;-66
2024/01/22 10:53:10;;;;;;;0.88;0.57;;;9.80;99.90;;;;;;5087719;28;20075;-66
2024/01/22 10:55:37;;;;;;;4.00;0.50;;;9.70;99.90;;;;;;5088146;28;20074;-65
2024/01/22 10:58:13;;;;;;;0.60;0.22;;;9.70;99.90;;;;;;5084920;28;20071;-65
2024/01/22 11:00:43;;;;;;;29.70;1.08;;;9.60;99.90;;;;;;5092659;28;20550;-66
2024/01/22 11:03:12;;;;;;;1.00;1.00;;;9.60;99.90;;;;;;5095680;28;20035;-66
2024/01/22 11:05:44;;;;;;;0.60;0.60;;;9.70;99.90;;;;;;5079122;28;20402;-66
2024/01/22 11:08:13;;;;;;;2.92;1.77;;;9.70;99.90;;;;;;5115970;27;20035;-67
2024/01/22 11:10:44;;;;;;;0.50;0.50;;;9.90;99.90;;;;;;5090347;28;20035;-67
2024/01/22 11:13:13;;;;;;;0.40;0.40;;;9.90;99.90;;;;;;5109183;27;20040;-66
2024/01/22 11:15:39;;;;;;;2.92;1.33;;;9.90;99.90;;;;;;5091719;28;20347;-67
2024/01/22 11:18:08;;;;;;;2.53;1.10;;;10.00;99.90;;;;;;5101944;27;20039;-65
2024/01/22 11:20:34;;;;;;;12.25;1.10;;;10.00;99.90;;;;;;5076338;28;20040;-66
2024/01/22 11:23:15;;;;;;;0.63;0.63;;;10.00;99.90;;;;;;5110277;27;20180;-66
2024/01/22 11:25:40;;;;;;;1.63;0.93;;;10.10;99.90;;;;;;5101663;27;20031;-66
2024/01/22 11:28:09;;;;;;;1.17;0.63;;;10.10;99.90;;;;;;5094532;28;20312;-65
2024/01/22 11:30:36;;;;;;;0.63;0.60;;;10.10;99.90;;;;;;5082633;28;20036;-66
2024/01/22 11:33:22;;;;;;;1.38;0.55;;;10.20;99.90;;;;;;5086565;27;20040;-65
2024/01/22 11:35:48;;;;;;;2.83;1.48;;;10.10;99.90;;;;;;5098991;27;20521;-67
2024/01/22 11:38:14;;;;;;;0.10;0.10;;;10.10;99.90;;;;;;5090945;28;20039;-66
2024/01/22 11:40:53;;;;;;;0.63;0.63;;;10.00;99.90;;;;;;5091057;28;20035;-67
2024/01/22 11:43:23;;;;;;;1.27;0.35;;;10.00;99.90;;;;;;5091100;28;20032;-66
2024/01/22 11:45:53;;;;;;;3.53;0.25;;;10.00;99.90;;;;;;5076845;28;20036;-66
2024/01/22 11:48:23;;;;;;;0.40;0.40;;;9.90;99.90;;;;;;5105444;28;20117;-68
2024/01/22 11:51:02;;;;;;;1.02;0.50;;;9.90;99.90;;;;;;5089985;27;20383;-66
2024/01/22 11:53:28;;;;;;;0.90;0.70;;;9.90;99.90;;;;;;5094221;28;20545;-67
2024/01/22 11:56:04;;;;;;;2.53;0.63;;;10.00;99.90;;;;;;5091404;28;20039;-66
2024/01/22 11:58:32;;;;;;;0.85;0.85;;;10.00;99.90;;;;;;5081283;27;20028;-67
2024/01/22 12:00:59;;;;;;;1.80;0.60;;;10.00;99.90;;;;;;5094612;27;20360;-66
2024/01/22 12:03:26;;;;;;;8.95;1.13;;;10.00;99.90;;;;;;5085340;28;20501;-66
2024/01/22 12:05:59;;;;;;;0.75;0.20;;;10.10;99.90;;;;;;5093192;27;20490;-66
2024/01/22 12:08:25;;;;;;;2.30;0.68;;;10.10;99.90;;;;;;5076519;28;20031;-66
2024/01/22 12:10:52;;;;;;;0.10;0.10;;;10.10;99.90;;;;;;5090827;27;21974;-66
2024/01/22 12:13:18;;;;;;;0.38;0.38;;;10.00;99.90;;;;;;5098515;28;20052;-66
2024/01/22 12:15:44;;;;;;;8.13;1.48;;;10.10;99.90;;;;;;5087621;28;20046;-66
2024/01/22 12:18:09;;;;;;;0.08;0.08;;;10.10;99.90;;;;;;5082671;28;20066;-65
2024/01/22 12:20:37;;;;;;;0.65;0.65;;;10.10;99.90;;;;;;5104806;28;20088;-66
2024/01/22 12:23:04;;;;;;;1.45;0.45;;;10.00;99.90;;;;;;5074376;27;20040;-67
2024/01/22 12:25:38;;;;;;;1.45;0.90;;;10.00;99.90;;;;;;5094830;27;20118;-64
2024/01/22 12:28:11;;;;;;;4.30;1.23;;;10.00;99.90;;;;;;5105394;27;20040;-65
2024/01/22 12:30:38;;;;;;;0.40;0.40;;;10.00;99.90;;;;;;5089980;28;20464;-67
2024/01/22 12:33:04;;;;;;;0.35;0.30;;;10.00;99.90;;;;;;5070985;28;20047;-66
2024/01/22 12:35:29;;;;;;;1.65;1.50;;;10.00;99.90;;;;;;5083613;27;20039;-66
2024/01/22 12:37:56;;;;;;;0.73;0.73;;;9.90;99.90;;;;;;5089993;27;20156;-67
2024/01/22 12:40:23;;;;;;;0.82;0.30;;;9.90;99.90;;;;;;5086917;28;20485;-66
2024/01/22 12:42:50;;;;;;;0.35;0.35;;;9.90;99.90;;;;;;5078528;27;20088;-66
2024/01/22 12:45:20;;;;;;;1.35;1.25;;;9.90;99.90;;;;;;5101021;27;20127;-67
2024/01/22 12:47:46;;;;;;;8.80;0.73;;;9.90;99.90;;;;;;5100167;27;20046;-67